sensor_id;sensor_type;location;lat;lon;timestamp;P1;durP1;ratioP1;P2;durP2;ratioP2
68614;SDS011;55593;51.994;5.882;2023-05-07T00:01:22;10.95;;;7.97;;
68614;SDS011;55593;51.994;5.882;2023-05-07T00:03:52;10.13;;;7.85;;
68614;SDS011;55593;51.994;5.882;2023-05-07T00:06:21;11.35;;;9.15;;
68614;SDS011;55593;51.994;5.882;2023-05-07T00:08:51;11.27;;;8.48;;
68614;SDS011;55593;51.994;5.882;2023-05-07T00:11:20;13.52;;;8.63;;
68614;SDS011;55593;51.994;5.882;2023-05-07T00:13:52;11.65;;;9.38;;
68614;SDS011;55593;51.994;5.882;2023-05-07T00:16:22;11.75;;;8.95;;
68614;SDS011;55593;51.994;5.882;2023-05-07T00:18:51;13.82;;;9.50;;
68614;SDS011;55593;51.994;5.882;2023-05-07T00:21:21;12.23;;;9.32;;
68614;SDS011;55593;51.994;5.882;2023-05-07T00:23:52;13.15;;;10.13;;
68614;SDS011;55593;51.994;5.882;2023-05-07T00:26:24;13.68;;;11.07;;
68614;SDS011;55593;51.994;5.882;2023-05-07T00:28:53;13.43;;;9.02;;
68614;SDS011;55593;51.994;5.882;2023-05-07T00:31:22;13.48;;;9.35;;
68614;SDS011;55593;51.994;5.882;2023-05-07T00:33:52;15.75;;;10.80;;
68614;SDS011;55593;51.994;5.882;2023-05-07T00:36:21;13.45;;;9.57;;
68614;SDS011;55593;51.994;5.882;2023-05-07T00:38:51;13.60;;;9.70;;
68614;SDS011;55593;51.994;5.882;2023-05-07T00:41:20;13.55;;;9.30;;
68614;SDS011;55593;51.994;5.882;2023-05-07T00:43:52;12.88;;;9.63;;
68614;SDS011;55593;51.994;5.882;2023-05-07T00:46:21;13.77;;;11.40;;
68614;SDS011;55593;51.994;5.882;2023-05-07T00:48:51;13.18;;;10.13;;
68614;SDS011;55593;51.994;5.882;2023-05-07T00:51:21;14.85;;;10.15;;
68614;SDS011;55593;51.994;5.882;2023-05-07T00:53:50;13.10;;;10.48;;
68614;SDS011;55593;51.994;5.882;2023-05-07T00:56:20;17.15;;;10.32;;
68614;SDS011;55593;51.994;5.882;2023-05-07T00:58:52;14.13;;;10.70;;
68614;SDS011;55593;51.994;5.882;2023-05-07T01:01:21;15.48;;;10.82;;
68614;SDS011;55593;51.994;5.882;2023-05-07T01:03:50;13.90;;;11.07;;
68614;SDS011;55593;51.994;5.882;2023-05-07T01:06:19;13.95;;;11.55;;
68614;SDS011;55593;51.994;5.882;2023-05-07T01:08:49;15.38;;;12.30;;
68614;SDS011;55593;51.994;5.882;2023-05-07T01:11:19;17.67;;;12.85;;
68614;SDS011;55593;51.994;5.882;2023-05-07T01:13:48;13.57;;;10.57;;
68614;SDS011;55593;51.994;5.882;2023-05-07T01:16:21;15.55;;;12.55;;
68614;SDS011;55593;51.994;5.882;2023-05-07T01:18:51;14.20;;;12.23;;
68614;SDS011;55593;51.994;5.882;2023-05-07T01:21:20;15.50;;;13.82;;
68614;SDS011;55593;51.994;5.882;2023-05-07T01:23:59;17.98;;;14.20;;
68614;SDS011;55593;51.994;5.882;2023-05-07T01:26:31;16.15;;;13.43;;
68614;SDS011;55593;51.994;5.882;2023-05-07T01:29:00;17.85;;;14.23;;
68614;SDS011;55593;51.994;5.882;2023-05-07T01:31:29;19.80;;;13.73;;
68614;SDS011;55593;51.994;5.882;2023-05-07T01:33:58;17.55;;;14.18;;
68614;SDS011;55593;51.994;5.882;2023-05-07T01:36:28;17.50;;;15.63;;
68614;SDS011;55593;51.994;5.882;2023-05-07T01:39:00;17.13;;;13.68;;
68614;SDS011;55593;51.994;5.882;2023-05-07T01:41:32;18.45;;;14.95;;
68614;SDS011;55593;51.994;5.882;2023-05-07T01:44:01;17.60;;;14.40;;
68614;SDS011;55593;51.994;5.882;2023-05-07T01:46:32;17.20;;;15.43;;
68614;SDS011;55593;51.994;5.882;2023-05-07T01:49:01;19.42;;;15.55;;
68614;SDS011;55593;51.994;5.882;2023-05-07T01:51:30;21.02;;;17.05;;
68614;SDS011;55593;51.994;5.882;2023-05-07T01:54:03;17.48;;;15.57;;
68614;SDS011;55593;51.994;5.882;2023-05-07T01:56:32;17.30;;;15.50;;
68614;SDS011;55593;51.994;5.882;2023-05-07T01:59:02;19.17;;;17.17;;
68614;SDS011;55593;51.994;5.882;2023-05-07T02:01:32;21.10;;;15.95;;
68614;SDS011;55593;51.994;5.882;2023-05-07T02:04:01;18.98;;;16.33;;
68614;SDS011;55593;51.994;5.882;2023-05-07T02:06:31;24.23;;;16.60;;
68614;SDS011;55593;51.994;5.882;2023-05-07T02:09:06;17.75;;;15.02;;
68614;SDS011;55593;51.994;5.882;2023-05-07T02:11:37;20.60;;;16.30;;
68614;SDS011;55593;51.994;5.882;2023-05-07T02:14:06;18.15;;;15.63;;
68614;SDS011;55593;51.994;5.882;2023-05-07T02:16:35;16.85;;;15.02;;
68614;SDS011;55593;51.994;5.882;2023-05-07T02:19:05;19.73;;;16.38;;
68614;SDS011;55593;51.994;5.882;2023-05-07T02:21:34;19.98;;;15.77;;
68614;SDS011;55593;51.994;5.882;2023-05-07T02:24:06;19.38;;;16.02;;
68614;SDS011;55593;51.994;5.882;2023-05-07T02:26:35;18.38;;;16.45;;
68614;SDS011;55593;51.994;5.882;2023-05-07T02:29:05;19.15;;;15.90;;
68614;SDS011;55593;51.994;5.882;2023-05-07T02:31:34;18.92;;;15.65;;
68614;SDS011;55593;51.994;5.882;2023-05-07T02:34:03;17.50;;;15.60;;
68614;SDS011;55593;51.994;5.882;2023-05-07T02:36:33;19.73;;;16.25;;
68614;SDS011;55593;51.994;5.882;2023-05-07T02:39:10;17.05;;;15.20;;
68614;SDS011;55593;51.994;5.882;2023-05-07T02:41:39;20.35;;;16.25;;
68614;SDS011;55593;51.994;5.882;2023-05-07T02:44:08;17.70;;;14.38;;
68614;SDS011;55593;51.994;5.882;2023-05-07T02:46:38;16.77;;;14.65;;
68614;SDS011;55593;51.994;5.882;2023-05-07T02:49:10;20.40;;;15.27;;
68614;SDS011;55593;51.994;5.882;2023-05-07T02:51:39;18.08;;;14.90;;
68614;SDS011;55593;51.994;5.882;2023-05-07T02:54:17;20.65;;;15.57;;
68614;SDS011;55593;51.994;5.882;2023-05-07T02:56:47;17.50;;;15.02;;
68614;SDS011;55593;51.994;5.882;2023-05-07T02:59:16;17.60;;;14.13;;
68614;SDS011;55593;51.994;5.882;2023-05-07T03:01:45;20.48;;;15.05;;
68614;SDS011;55593;51.994;5.882;2023-05-07T03:04:15;21.90;;;14.75;;
68614;SDS011;55593;51.994;5.882;2023-05-07T03:06:44;19.73;;;14.88;;
68614;SDS011;55593;51.994;5.882;2023-05-07T03:09:13;18.25;;;14.23;;
68614;SDS011;55593;51.994;5.882;2023-05-07T03:11:45;17.75;;;13.60;;
68614;SDS011;55593;51.994;5.882;2023-05-07T03:14:15;20.52;;;15.38;;
68614;SDS011;55593;51.994;5.882;2023-05-07T03:16:44;17.17;;;13.65;;
68614;SDS011;55593;51.994;5.882;2023-05-07T03:19:13;17.45;;;14.15;;
68614;SDS011;55593;51.994;5.882;2023-05-07T03:21:42;23.08;;;15.13;;
68614;SDS011;55593;51.994;5.882;2023-05-07T03:24:11;22.52;;;15.23;;
68614;SDS011;55593;51.994;5.882;2023-05-07T03:26:41;18.88;;;14.65;;
68614;SDS011;55593;51.994;5.882;2023-05-07T03:29:13;18.45;;;16.08;;
68614;SDS011;55593;51.994;5.882;2023-05-07T03:31:42;20.00;;;16.45;;
68614;SDS011;55593;51.994;5.882;2023-05-07T03:34:11;19.67;;;15.98;;
68614;SDS011;55593;51.994;5.882;2023-05-07T03:36:43;22.02;;;15.40;;
68614;SDS011;55593;51.994;5.882;2023-05-07T03:39:13;17.67;;;15.13;;
68614;SDS011;55593;51.994;5.882;2023-05-07T03:41:42;19.30;;;14.63;;
68614;SDS011;55593;51.994;5.882;2023-05-07T03:44:14;19.67;;;14.77;;
68614;SDS011;55593;51.994;5.882;2023-05-07T03:46:43;18.98;;;16.48;;
68614;SDS011;55593;51.994;5.882;2023-05-07T03:49:12;20.70;;;14.85;;
68614;SDS011;55593;51.994;5.882;2023-05-07T03:51:41;18.00;;;15.13;;
68614;SDS011;55593;51.994;5.882;2023-05-07T03:54:11;20.20;;;15.32;;
68614;SDS011;55593;51.994;5.882;2023-05-07T03:56:43;19.15;;;15.73;;
68614;SDS011;55593;51.994;5.882;2023-05-07T03:59:15;21.45;;;15.85;;
68614;SDS011;55593;51.994;5.882;2023-05-07T04:01:46;19.30;;;15.00;;
68614;SDS011;55593;51.994;5.882;2023-05-07T04:04:18;19.85;;;17.42;;
68614;SDS011;55593;51.994;5.882;2023-05-07T04:06:47;20.77;;;17.05;;
68614;SDS011;55593;51.994;5.882;2023-05-07T04:09:16;23.42;;;17.67;;
68614;SDS011;55593;51.994;5.882;2023-05-07T04:11:47;20.92;;;17.20;;
68614;SDS011;55593;51.994;5.882;2023-05-07T04:14:19;21.60;;;17.17;;
68614;SDS011;55593;51.994;5.882;2023-05-07T04:16:48;19.83;;;17.55;;
68614;SDS011;55593;51.994;5.882;2023-05-07T04:19:18;20.08;;;17.45;;
68614;SDS011;55593;51.994;5.882;2023-05-07T04:21:51;27.45;;;17.92;;
68614;SDS011;55593;51.994;5.882;2023-05-07T04:24:20;20.88;;;17.85;;
68614;SDS011;55593;51.994;5.882;2023-05-07T04:26:50;23.00;;;19.92;;
68614;SDS011;55593;51.994;5.882;2023-05-07T04:29:23;22.33;;;18.02;;
68614;SDS011;55593;51.994;5.882;2023-05-07T04:31:53;20.67;;;18.48;;
68614;SDS011;55593;51.994;5.882;2023-05-07T04:34:25;21.98;;;18.63;;
68614;SDS011;55593;51.994;5.882;2023-05-07T04:36:57;22.67;;;19.73;;
68614;SDS011;55593;51.994;5.882;2023-05-07T04:39:28;25.23;;;19.23;;
68614;SDS011;55593;51.994;5.882;2023-05-07T04:42:02;26.45;;;19.25;;
68614;SDS011;55593;51.994;5.882;2023-05-07T04:44:36;21.75;;;19.45;;
68614;SDS011;55593;51.994;5.882;2023-05-07T04:47:05;23.63;;;19.45;;
68614;SDS011;55593;51.994;5.882;2023-05-07T04:49:35;26.15;;;19.48;;
68614;SDS011;55593;51.994;5.882;2023-05-07T04:52:04;22.13;;;19.67;;
68614;SDS011;55593;51.994;5.882;2023-05-07T04:54:34;22.80;;;20.02;;
68614;SDS011;55593;51.994;5.882;2023-05-07T04:57:03;24.60;;;20.70;;
68614;SDS011;55593;51.994;5.882;2023-05-07T04:59:36;20.17;;;18.08;;
68614;SDS011;55593;51.994;5.882;2023-05-07T05:02:06;25.00;;;19.73;;
68614;SDS011;55593;51.994;5.882;2023-05-07T05:04:35;23.23;;;19.70;;
68614;SDS011;55593;51.994;5.882;2023-05-07T05:07:05;21.50;;;18.67;;
68614;SDS011;55593;51.994;5.882;2023-05-07T05:09:36;22.27;;;19.80;;
68614;SDS011;55593;51.994;5.882;2023-05-07T05:12:05;23.08;;;20.58;;
68614;SDS011;55593;51.994;5.882;2023-05-07T05:14:40;25.55;;;19.50;;
68614;SDS011;55593;51.994;5.882;2023-05-07T05:17:09;21.00;;;18.75;;
68614;SDS011;55593;51.994;5.882;2023-05-07T05:19:39;23.27;;;18.67;;
68614;SDS011;55593;51.994;5.882;2023-05-07T05:22:08;23.42;;;19.40;;
68614;SDS011;55593;51.994;5.882;2023-05-07T05:24:37;21.55;;;19.27;;
68614;SDS011;55593;51.994;5.882;2023-05-07T05:27:06;21.38;;;19.13;;
68614;SDS011;55593;51.994;5.882;2023-05-07T05:29:35;24.23;;;19.33;;
68614;SDS011;55593;51.994;5.882;2023-05-07T05:32:07;26.40;;;19.05;;
68614;SDS011;55593;51.994;5.882;2023-05-07T05:34:36;22.65;;;20.25;;
68614;SDS011;55593;51.994;5.882;2023-05-07T05:37:06;23.42;;;20.30;;
68614;SDS011;55593;51.994;5.882;2023-05-07T05:39:35;23.75;;;20.00;;
68614;SDS011;55593;51.994;5.882;2023-05-07T05:42:05;20.25;;;18.25;;
68614;SDS011;55593;51.994;5.882;2023-05-07T05:44:35;21.80;;;19.38;;
68614;SDS011;55593;51.994;5.882;2023-05-07T05:47:07;22.80;;;20.40;;
68614;SDS011;55593;51.994;5.882;2023-05-07T05:49:37;23.55;;;19.58;;
68614;SDS011;55593;51.994;5.882;2023-05-07T05:52:08;23.52;;;20.25;;
68614;SDS011;55593;51.994;5.882;2023-05-07T05:54:37;22.63;;;19.98;;
68614;SDS011;55593;51.994;5.882;2023-05-07T05:57:06;21.17;;;19.08;;
68614;SDS011;55593;51.994;5.882;2023-05-07T05:59:36;26.75;;;20.48;;
68614;SDS011;55593;51.994;5.882;2023-05-07T06:02:08;21.63;;;18.65;;
68614;SDS011;55593;51.994;5.882;2023-05-07T06:04:38;21.42;;;19.15;;
68614;SDS011;55593;51.994;5.882;2023-05-07T06:07:08;20.58;;;18.35;;
68614;SDS011;55593;51.994;5.882;2023-05-07T06:09:38;23.27;;;18.83;;
68614;SDS011;55593;51.994;5.882;2023-05-07T06:12:07;22.50;;;20.10;;
68614;SDS011;55593;51.994;5.882;2023-05-07T06:14:37;21.27;;;18.98;;
68614;SDS011;55593;51.994;5.882;2023-05-07T06:17:09;22.48;;;19.67;;
68614;SDS011;55593;51.994;5.882;2023-05-07T06:19:39;21.70;;;19.38;;
68614;SDS011;55593;51.994;5.882;2023-05-07T06:22:09;21.88;;;19.25;;
68614;SDS011;55593;51.994;5.882;2023-05-07T06:24:38;20.58;;;18.23;;
68614;SDS011;55593;51.994;5.882;2023-05-07T06:27:08;21.55;;;19.25;;
68614;SDS011;55593;51.994;5.882;2023-05-07T06:29:37;21.00;;;18.80;;
68614;SDS011;55593;51.994;5.882;2023-05-07T06:32:15;19.42;;;17.48;;
68614;SDS011;55593;51.994;5.882;2023-05-07T06:34:46;19.73;;;17.02;;
68614;SDS011;55593;51.994;5.882;2023-05-07T06:37:15;21.33;;;19.05;;
68614;SDS011;55593;51.994;5.882;2023-05-07T06:40:14;20.98;;;18.02;;
68614;SDS011;55593;51.994;5.882;2023-05-07T06:42:44;19.02;;;16.90;;
68614;SDS011;55593;51.994;5.882;2023-05-07T06:45:37;23.67;;;20.35;;
68614;SDS011;55593;51.994;5.882;2023-05-07T06:48:11;23.75;;;20.65;;
68614;SDS011;55593;51.994;5.882;2023-05-07T06:50:49;23.80;;;20.20;;
68614;SDS011;55593;51.994;5.882;2023-05-07T06:53:21;21.35;;;19.08;;
68614;SDS011;55593;51.994;5.882;2023-05-07T06:55:53;22.50;;;20.10;;
68614;SDS011;55593;51.994;5.882;2023-05-07T06:58:22;21.63;;;19.45;;
68614;SDS011;55593;51.994;5.882;2023-05-07T07:00:51;21.95;;;19.67;;
68614;SDS011;55593;51.994;5.882;2023-05-07T07:03:24;22.00;;;19.45;;
68614;SDS011;55593;51.994;5.882;2023-05-07T07:05:55;23.40;;;20.98;;
68614;SDS011;55593;51.994;5.882;2023-05-07T07:08:25;22.55;;;20.35;;
68614;SDS011;55593;51.994;5.882;2023-05-07T07:10:55;26.77;;;21.75;;
68614;SDS011;55593;51.994;5.882;2023-05-07T07:13:24;23.95;;;20.10;;
68614;SDS011;55593;51.994;5.882;2023-05-07T07:15:54;24.80;;;20.85;;
68614;SDS011;55593;51.994;5.882;2023-05-07T07:18:26;31.63;;;21.80;;
68614;SDS011;55593;51.994;5.882;2023-05-07T07:20:55;23.70;;;20.50;;
68614;SDS011;55593;51.994;5.882;2023-05-07T07:23:25;25.60;;;21.27;;
68614;SDS011;55593;51.994;5.882;2023-05-07T07:25:55;24.17;;;21.38;;
68614;SDS011;55593;51.994;5.882;2023-05-07T07:28:24;23.33;;;20.92;;
68614;SDS011;55593;51.994;5.882;2023-05-07T07:30:53;25.35;;;22.27;;
68614;SDS011;55593;51.994;5.882;2023-05-07T07:33:22;24.38;;;21.77;;
68614;SDS011;55593;51.994;5.882;2023-05-07T07:35:56;26.45;;;21.73;;
68614;SDS011;55593;51.994;5.882;2023-05-07T07:38:25;24.98;;;22.38;;
68614;SDS011;55593;51.994;5.882;2023-05-07T07:41:24;25.55;;;22.80;;
68614;SDS011;55593;51.994;5.882;2023-05-07T07:43:55;23.13;;;20.73;;
68614;SDS011;55593;51.994;5.882;2023-05-07T07:46:24;25.10;;;22.30;;
68614;SDS011;55593;51.994;5.882;2023-05-07T07:48:57;26.48;;;21.10;;
68614;SDS011;55593;51.994;5.882;2023-05-07T07:51:27;24.67;;;21.33;;
68614;SDS011;55593;51.994;5.882;2023-05-07T07:53:57;25.52;;;20.77;;
68614;SDS011;55593;51.994;5.882;2023-05-07T07:56:31;25.30;;;21.52;;
68614;SDS011;55593;51.994;5.882;2023-05-07T07:59:01;24.67;;;21.95;;
68614;SDS011;55593;51.994;5.882;2023-05-07T08:01:32;25.13;;;21.25;;
68614;SDS011;55593;51.994;5.882;2023-05-07T08:04:04;24.50;;;20.98;;
68614;SDS011;55593;51.994;5.882;2023-05-07T08:06:37;24.98;;;19.77;;
68614;SDS011;55593;51.994;5.882;2023-05-07T08:09:08;26.83;;;21.45;;
68614;SDS011;55593;51.994;5.882;2023-05-07T08:11:40;27.65;;;21.15;;
68614;SDS011;55593;51.994;5.882;2023-05-07T08:14:09;22.35;;;19.67;;
68614;SDS011;55593;51.994;5.882;2023-05-07T08:16:39;24.48;;;21.25;;
68614;SDS011;55593;51.994;5.882;2023-05-07T08:19:11;26.63;;;21.40;;
68614;SDS011;55593;51.994;5.882;2023-05-07T08:21:40;26.23;;;21.45;;
68614;SDS011;55593;51.994;5.882;2023-05-07T08:24:11;23.75;;;21.15;;
68614;SDS011;55593;51.994;5.882;2023-05-07T08:26:40;23.27;;;20.50;;
68614;SDS011;55593;51.994;5.882;2023-05-07T08:29:10;22.55;;;20.17;;
68614;SDS011;55593;51.994;5.882;2023-05-07T08:31:40;27.33;;;21.40;;
68614;SDS011;55593;51.994;5.882;2023-05-07T08:34:11;26.70;;;20.30;;
68614;SDS011;55593;51.994;5.882;2023-05-07T08:36:44;25.48;;;20.27;;
68614;SDS011;55593;51.994;5.882;2023-05-07T08:39:16;24.48;;;20.50;;
68614;SDS011;55593;51.994;5.882;2023-05-07T08:41:48;25.98;;;19.85;;
68614;SDS011;55593;51.994;5.882;2023-05-07T08:44:18;26.50;;;20.08;;
68614;SDS011;55593;51.994;5.882;2023-05-07T08:46:50;22.85;;;18.58;;
68614;SDS011;55593;51.994;5.882;2023-05-07T08:49:23;20.38;;;16.30;;
68614;SDS011;55593;51.994;5.882;2023-05-07T08:51:53;28.73;;;19.35;;
68614;SDS011;55593;51.994;5.882;2023-05-07T08:54:23;21.00;;;17.42;;
68614;SDS011;55593;51.994;5.882;2023-05-07T08:56:54;24.58;;;17.90;;
68614;SDS011;55593;51.994;5.882;2023-05-07T08:59:24;24.85;;;18.88;;
68614;SDS011;55593;51.994;5.882;2023-05-07T09:01:53;20.42;;;16.90;;
68614;SDS011;55593;51.994;5.882;2023-05-07T09:04:36;22.02;;;17.92;;
68614;SDS011;55593;51.994;5.882;2023-05-07T09:07:06;20.75;;;16.67;;
68614;SDS011;55593;51.994;5.882;2023-05-07T09:09:40;18.95;;;16.08;;
68614;SDS011;55593;51.994;5.882;2023-05-07T09:12:13;19.92;;;15.95;;
68614;SDS011;55593;51.994;5.882;2023-05-07T09:14:42;21.65;;;14.95;;
68614;SDS011;55593;51.994;5.882;2023-05-07T09:17:12;22.15;;;17.23;;
68614;SDS011;55593;51.994;5.882;2023-05-07T09:19:45;21.65;;;16.17;;
68614;SDS011;55593;51.994;5.882;2023-05-07T09:22:15;23.73;;;17.27;;
68614;SDS011;55593;51.994;5.882;2023-05-07T09:24:56;24.27;;;17.88;;
68614;SDS011;55593;51.994;5.882;2023-05-07T09:27:27;21.17;;;18.00;;
68614;SDS011;55593;51.994;5.882;2023-05-07T09:29:57;20.92;;;17.88;;
68614;SDS011;55593;51.994;5.882;2023-05-07T09:32:27;21.55;;;16.75;;
68614;SDS011;55593;51.994;5.882;2023-05-07T09:35:00;22.02;;;15.88;;
68614;SDS011;55593;51.994;5.882;2023-05-07T09:37:30;20.17;;;16.27;;
68614;SDS011;55593;51.994;5.882;2023-05-07T09:40:00;24.23;;;16.17;;
68614;SDS011;55593;51.994;5.882;2023-05-07T09:42:30;18.58;;;15.98;;
68614;SDS011;55593;51.994;5.882;2023-05-07T09:45:03;17.42;;;15.52;;
68614;SDS011;55593;51.994;5.882;2023-05-07T09:47:37;18.52;;;15.63;;
68614;SDS011;55593;51.994;5.882;2023-05-07T09:50:11;20.13;;;16.05;;
68614;SDS011;55593;51.994;5.882;2023-05-07T09:52:41;16.60;;;13.95;;
68614;SDS011;55593;51.994;5.882;2023-05-07T09:55:11;17.23;;;14.15;;
68614;SDS011;55593;51.994;5.882;2023-05-07T09:57:41;17.40;;;13.73;;
68614;SDS011;55593;51.994;5.882;2023-05-07T10:00:12;18.85;;;13.32;;
68614;SDS011;55593;51.994;5.882;2023-05-07T10:02:48;21.80;;;15.45;;
68614;SDS011;55593;51.994;5.882;2023-05-07T10:05:25;20.58;;;14.70;;
68614;SDS011;55593;51.994;5.882;2023-05-07T10:07:57;21.13;;;14.25;;
68614;SDS011;55593;51.994;5.882;2023-05-07T10:10:27;16.95;;;13.90;;
68614;SDS011;55593;51.994;5.882;2023-05-07T10:12:57;16.98;;;12.35;;
68614;SDS011;55593;51.994;5.882;2023-05-07T10:15:32;14.55;;;12.07;;
68614;SDS011;55593;51.994;5.882;2023-05-07T10:18:02;17.35;;;12.57;;
68614;SDS011;55593;51.994;5.882;2023-05-07T10:20:35;18.83;;;14.07;;
68614;SDS011;55593;51.994;5.882;2023-05-07T10:23:07;17.23;;;14.50;;
68614;SDS011;55593;51.994;5.882;2023-05-07T10:25:45;19.00;;;14.40;;
68614;SDS011;55593;51.994;5.882;2023-05-07T10:28:19;17.38;;;13.10;;
68614;SDS011;55593;51.994;5.882;2023-05-07T10:30:55;19.02;;;14.20;;
68614;SDS011;55593;51.994;5.882;2023-05-07T10:33:36;17.10;;;13.30;;
68614;SDS011;55593;51.994;5.882;2023-05-07T10:36:10;16.33;;;12.98;;
68614;SDS011;55593;51.994;5.882;2023-05-07T10:38:40;21.88;;;14.52;;
68614;SDS011;55593;51.994;5.882;2023-05-07T10:41:10;16.02;;;13.57;;
68614;SDS011;55593;51.994;5.882;2023-05-07T10:43:43;20.70;;;15.75;;
68614;SDS011;55593;51.994;5.882;2023-05-07T10:46:38;18.15;;;15.80;;
68614;SDS011;55593;51.994;5.882;2023-05-07T10:49:16;16.50;;;14.68;;
68614;SDS011;55593;51.994;5.882;2023-05-07T10:55:19;18.20;;;13.73;;
68614;SDS011;55593;51.994;5.882;2023-05-07T10:58:23;14.52;;;13.00;;
68614;SDS011;55593;51.994;5.882;2023-05-07T11:01:05;13.70;;;11.55;;
68614;SDS011;55593;51.994;5.882;2023-05-07T11:04:11;13.90;;;10.73;;
68614;SDS011;55593;51.994;5.882;2023-05-07T11:07:24;15.63;;;11.30;;
68614;SDS011;55593;51.994;5.882;2023-05-07T11:09:59;17.40;;;12.45;;
68614;SDS011;55593;51.994;5.882;2023-05-07T11:12:53;14.18;;;12.45;;
68614;SDS011;55593;51.994;5.882;2023-05-07T11:15:36;15.57;;;12.57;;
68614;SDS011;55593;51.994;5.882;2023-05-07T11:18:23;17.17;;;11.73;;
68614;SDS011;55593;51.994;5.882;2023-05-07T11:20:53;17.08;;;12.80;;
68614;SDS011;55593;51.994;5.882;2023-05-07T11:23:59;14.50;;;12.50;;
68614;SDS011;55593;51.994;5.882;2023-05-07T11:26:47;13.93;;;12.40;;
68614;SDS011;55593;51.994;5.882;2023-05-07T11:29:19;13.45;;;11.88;;
68614;SDS011;55593;51.994;5.882;2023-05-07T11:34:30;14.98;;;12.40;;
68614;SDS011;55593;51.994;5.882;2023-05-07T11:37:00;16.23;;;12.25;;
68614;SDS011;55593;51.994;5.882;2023-05-07T11:39:48;18.27;;;14.07;;
68614;SDS011;55593;51.994;5.882;2023-05-07T11:42:27;17.55;;;13.68;;
68614;SDS011;55593;51.994;5.882;2023-05-07T11:44:56;13.45;;;12.02;;
68614;SDS011;55593;51.994;5.882;2023-05-07T11:47:26;16.67;;;12.48;;
68614;SDS011;55593;51.994;5.882;2023-05-07T11:49:55;14.93;;;12.70;;
68614;SDS011;55593;51.994;5.882;2023-05-07T11:52:24;14.85;;;13.25;;
68614;SDS011;55593;51.994;5.882;2023-05-07T11:54:56;15.70;;;12.77;;
68614;SDS011;55593;51.994;5.882;2023-05-07T11:57:27;14.55;;;12.32;;
68614;SDS011;55593;51.994;5.882;2023-05-07T11:59:56;15.35;;;13.50;;
68614;SDS011;55593;51.994;5.882;2023-05-07T12:02:27;18.08;;;15.38;;
68614;SDS011;55593;51.994;5.882;2023-05-07T12:04:57;16.50;;;13.77;;
68614;SDS011;55593;51.994;5.882;2023-05-07T12:07:26;16.58;;;13.75;;
68614;SDS011;55593;51.994;5.882;2023-05-07T12:09:58;18.90;;;14.13;;
68614;SDS011;55593;51.994;5.882;2023-05-07T12:12:27;18.70;;;13.27;;
68614;SDS011;55593;51.994;5.882;2023-05-07T12:14:56;17.85;;;12.45;;
68614;SDS011;55593;51.994;5.882;2023-05-07T12:17:25;16.17;;;11.60;;
68614;SDS011;55593;51.994;5.882;2023-05-07T12:19:54;13.32;;;11.75;;
68614;SDS011;55593;51.994;5.882;2023-05-07T12:22:24;16.20;;;12.15;;
68614;SDS011;55593;51.994;5.882;2023-05-07T12:24:58;15.88;;;12.70;;
68614;SDS011;55593;51.994;5.882;2023-05-07T12:27:28;15.15;;;12.52;;
68614;SDS011;55593;51.994;5.882;2023-05-07T12:29:58;17.20;;;12.57;;
68614;SDS011;55593;51.994;5.882;2023-05-07T12:32:27;14.88;;;13.25;;
68614;SDS011;55593;51.994;5.882;2023-05-07T12:34:56;15.80;;;13.07;;
68614;SDS011;55593;51.994;5.882;2023-05-07T12:37:25;15.05;;;11.68;;
68614;SDS011;55593;51.994;5.882;2023-05-07T12:40:07;18.73;;;11.75;;
68614;SDS011;55593;51.994;5.882;2023-05-07T12:42:38;14.43;;;11.70;;
68614;SDS011;55593;51.994;5.882;2023-05-07T12:45:11;19.45;;;13.55;;
68614;SDS011;55593;51.994;5.882;2023-05-07T12:47:43;14.60;;;12.82;;
68614;SDS011;55593;51.994;5.882;2023-05-07T12:50:13;18.40;;;12.50;;
68614;SDS011;55593;51.994;5.882;2023-05-07T12:52:42;14.50;;;11.80;;
68614;SDS011;55593;51.994;5.882;2023-05-07T12:55:15;13.85;;;12.35;;
68614;SDS011;55593;51.994;5.882;2023-05-07T12:57:45;21.08;;;11.90;;
68614;SDS011;55593;51.994;5.882;2023-05-07T13:00:17;13.20;;;11.80;;
68614;SDS011;55593;51.994;5.882;2023-05-07T13:02:46;14.95;;;11.63;;
68614;SDS011;55593;51.994;5.882;2023-05-07T13:05:16;14.30;;;11.90;;
68614;SDS011;55593;51.994;5.882;2023-05-07T13:07:52;15.15;;;12.07;;
68614;SDS011;55593;51.994;5.882;2023-05-07T13:10:25;16.10;;;12.25;;
68614;SDS011;55593;51.994;5.882;2023-05-07T13:12:56;15.00;;;11.48;;
68614;SDS011;55593;51.994;5.882;2023-05-07T13:15:25;16.42;;;10.38;;
68614;SDS011;55593;51.994;5.882;2023-05-07T13:17:55;15.65;;;12.30;;
68614;SDS011;55593;51.994;5.882;2023-05-07T13:20:24;12.32;;;10.85;;
68614;SDS011;55593;51.994;5.882;2023-05-07T13:22:54;12.65;;;10.88;;
68614;SDS011;55593;51.994;5.882;2023-05-07T13:25:25;15.27;;;12.27;;
68614;SDS011;55593;51.994;5.882;2023-05-07T13:27:55;14.82;;;12.18;;
68614;SDS011;55593;51.994;5.882;2023-05-07T13:30:25;13.90;;;10.93;;
68614;SDS011;55593;51.994;5.882;2023-05-07T13:32:55;15.23;;;11.07;;
68614;SDS011;55593;51.994;5.882;2023-05-07T13:35:24;14.48;;;11.48;;
68614;SDS011;55593;51.994;5.882;2023-05-07T13:37:54;12.77;;;10.73;;
68614;SDS011;55593;51.994;5.882;2023-05-07T13:40:26;14.30;;;11.30;;
68614;SDS011;55593;51.994;5.882;2023-05-07T13:42:56;15.13;;;10.60;;
68614;SDS011;55593;51.994;5.882;2023-05-07T13:45:27;18.30;;;11.13;;
68614;SDS011;55593;51.994;5.882;2023-05-07T13:47:57;15.07;;;10.75;;
68614;SDS011;55593;51.994;5.882;2023-05-07T13:50:26;14.18;;;11.48;;
68614;SDS011;55593;51.994;5.882;2023-05-07T13:52:55;14.93;;;11.15;;
68614;SDS011;55593;51.994;5.882;2023-05-07T13:55:30;13.57;;;10.35;;
68614;SDS011;55593;51.994;5.882;2023-05-07T13:58:01;16.38;;;10.07;;
68614;SDS011;55593;51.994;5.882;2023-05-07T14:00:30;14.32;;;9.95;;
68614;SDS011;55593;51.994;5.882;2023-05-07T14:03:00;13.50;;;9.95;;
68614;SDS011;55593;51.994;5.882;2023-05-07T14:05:29;13.00;;;9.85;;
68614;SDS011;55593;51.994;5.882;2023-05-07T14:07:58;14.30;;;9.85;;
68614;SDS011;55593;51.994;5.882;2023-05-07T14:10:31;11.95;;;9.23;;
68614;SDS011;55593;51.994;5.882;2023-05-07T14:13:01;13.73;;;10.48;;
68614;SDS011;55593;51.994;5.882;2023-05-07T14:15:30;13.07;;;9.43;;
68614;SDS011;55593;51.994;5.882;2023-05-07T14:18:00;14.93;;;9.35;;
68614;SDS011;55593;51.994;5.882;2023-05-07T14:20:29;10.63;;;8.38;;
68614;SDS011;55593;51.994;5.882;2023-05-07T14:22:58;11.57;;;8.30;;
68614;SDS011;55593;51.994;5.882;2023-05-07T14:25:28;10.63;;;9.02;;
68614;SDS011;55593;51.994;5.882;2023-05-07T14:27:59;13.07;;;9.18;;
68614;SDS011;55593;51.994;5.882;2023-05-07T14:30:28;12.57;;;9.70;;
68614;SDS011;55593;51.994;5.882;2023-05-07T14:32:58;12.45;;;10.68;;
68614;SDS011;55593;51.994;5.882;2023-05-07T14:35:27;14.02;;;10.60;;
68614;SDS011;55593;51.994;5.882;2023-05-07T14:37:56;17.50;;;10.02;;
68614;SDS011;55593;51.994;5.882;2023-05-07T14:40:25;11.02;;;8.73;;
68614;SDS011;55593;51.994;5.882;2023-05-07T14:42:54;14.60;;;8.50;;
68614;SDS011;55593;51.994;5.882;2023-05-07T14:45:26;11.60;;;9.50;;
68614;SDS011;55593;51.994;5.882;2023-05-07T14:47:55;14.27;;;9.43;;
68614;SDS011;55593;51.994;5.882;2023-05-07T14:50:25;13.75;;;9.82;;
68614;SDS011;55593;51.994;5.882;2023-05-07T14:52:54;17.48;;;11.38;;
68614;SDS011;55593;51.994;5.882;2023-05-07T14:55:23;15.45;;;9.98;;